createdAt,value
2017-04-10T00:00:03.416Z,37.01
2017-04-10T00:01:13.017Z,37.19
2017-04-10T00:02:22.683Z,37.1
2017-04-10T00:03:32.921Z,37.1
2017-04-10T00:04:43.160Z,37.1
2017-04-10T00:05:53.085Z,37.1
2017-04-10T00:07:03.316Z,37.1
2017-04-10T00:08:12.934Z,37.19
2017-04-10T00:09:23.211Z,37.1
2017-04-10T00:10:33.140Z,37.1
2017-04-10T00:11:43.064Z,37.01
2017-04-10T00:12:53.300Z,37.01
2017-04-10T00:14:02.902Z,37.1
2017-04-10T00:15:12.817Z,37.1
2017-04-10T00:16:22.738Z,37.01
2017-04-10T00:17:32.664Z,37.1
2017-04-10T00:18:42.895Z,37.1
2017-04-10T00:19:52.817Z,37.19
2017-04-10T00:21:03.055Z,37.1
2017-04-10T00:22:12.975Z,37.1
2017-04-10T00:23:22.578Z,37.1
2017-04-10T00:24:32.862Z,37.29
2017-04-10T00:25:42.804Z,36.91
2017-04-10T00:26:52.415Z,37.01
2017-04-10T00:28:02.656Z,36.81
2017-04-10T00:29:12.584Z,36.91
2017-04-10T00:30:22.820Z,37.1
2017-04-10T00:31:32.736Z,36.91
2017-04-10T00:32:42.972Z,37.1
2017-04-10T00:33:53.214Z,37.19
2017-04-10T00:35:03.455Z,37.19
2017-04-10T00:36:13.691Z,37.01
2017-04-10T00:37:23.618Z,37.19
2017-04-10T00:38:33.239Z,37.01
2017-04-10T00:39:42.859Z,37.01
2017-04-10T00:40:52.782Z,37.1
2017-04-10T00:42:03.021Z,37.1
2017-04-10T00:43:12.940Z,37.1
2017-04-10T00:44:23.177Z,37.19
2017-04-10T00:45:33.407Z,37.29
2017-04-10T00:46:43.654Z,37.1
2017-04-10T00:47:53.907Z,37.01
2017-04-10T00:49:04.155Z,37.19
2017-04-10T00:50:14.086Z,37.1
2017-04-10T00:51:24.318Z,36.91
2017-04-10T00:52:34.545Z,37.1
2017-04-10T00:53:44.175Z,37.19
2017-04-10T00:54:54.420Z,37.39
2017-04-10T00:56:04.661Z,37.1
2017-04-10T00:57:14.585Z,36.91
2017-04-10T00:58:24.194Z,37.39
2017-04-10T00:59:33.821Z,37.29
2017-04-10T01:00:44.053Z,37.19
2017-04-10T01:01:54.289Z,37.29
2017-04-10T01:03:04.214Z,37.29
2017-04-10T01:04:14.148Z,37.29
2017-04-10T01:05:24.070Z,37.29
2017-04-10T01:06:33.678Z,37.19
2017-04-10T01:07:43.011Z,37.29
2017-04-10T01:08:52.946Z,37.39
2017-04-10T01:10:03.191Z,37.29
2017-04-10T01:11:13.114Z,37.29
2017-04-10T01:12:23.353Z,37.29
2017-04-10T01:13:33.003Z,37.39
2017-04-10T01:14:42.931Z,37.19
2017-04-10T01:15:53.170Z,37.19
2017-04-10T01:17:03.096Z,37.19
2017-04-10T01:18:13.343Z,37.19
2017-04-10T01:19:23.581Z,37.19
2017-04-10T01:20:33.825Z,37.39
2017-04-10T01:21:44.066Z,37.39
2017-04-10T01:22:53.993Z,37.19
2017-04-10T01:24:03.916Z,37.48
2017-04-10T01:25:13.830Z,37.48
2017-04-10T01:26:24.081Z,37.29
2017-04-10T01:27:34.313Z,37.48
2017-04-10T01:28:43.922Z,37.29
2017-04-10T01:29:54.154Z,37.48
2017-04-10T01:31:03.763Z,37.48
2017-04-10T01:32:13.708Z,37.29
2017-04-10T01:33:23.639Z,37.1
2017-04-10T01:34:33.260Z,37.29
2017-04-10T01:35:43.187Z,37.29
2017-04-10T01:36:53.422Z,37.19
2017-04-10T01:38:03.350Z,37.39
2017-04-10T01:39:13.579Z,37.29
2017-04-10T01:40:23.541Z,36.91
2017-04-10T01:41:33.778Z,37.29
2017-04-10T01:42:44.006Z,37.19
2017-04-10T01:43:54.235Z,37.39
2017-04-10T01:45:04.470Z,37.01
2017-04-10T01:46:14.729Z,37.1
2017-04-10T01:47:24.346Z,37.19
2017-04-10T01:48:34.273Z,37.19
2017-04-10T01:49:44.512Z,37.29
2017-04-10T01:50:54.454Z,37.19
2017-04-10T01:52:04.377Z,37.29
2017-04-10T01:53:14.617Z,37.01
2017-04-10T01:54:24.853Z,37.01
2017-04-10T01:55:34.771Z,37.1
2017-04-10T01:56:45.004Z,36.81
2017-04-10T01:57:54.618Z,36.71
2017-04-10T01:59:04.533Z,36.91
2017-04-10T02:00:14.459Z,36.81
2017-04-10T02:01:24.706Z,37.01
2017-04-10T02:02:34.938Z,37.1
2017-04-10T02:03:44.867Z,36.91
2017-04-10T02:04:54.788Z,36.81
2017-04-10T02:06:05.024Z,36.61
2017-04-10T02:07:14.939Z,36.71
2017-04-10T02:08:24.865Z,36.81
2017-04-10T02:09:35.092Z,36.81
2017-04-10T02:10:45.038Z,36.91
2017-04-10T02:11:54.645Z,36.81
2017-04-10T02:13:04.259Z,36.71
2017-04-10T02:14:14.216Z,36.61
2017-04-10T02:15:24.451Z,36.81
2017-04-10T02:16:34.371Z,36.91
2017-04-10T02:17:44.603Z,37.01
2017-04-10T02:18:54.212Z,36.71
2017-04-10T02:20:04.443Z,36.52
2017-04-10T02:21:14.378Z,36.71
2017-04-10T02:22:24.302Z,36.71
2017-04-10T02:23:34.537Z,36.52
2017-04-10T02:24:44.466Z,36.71
2017-04-10T02:25:54.697Z,36.61
2017-04-10T02:27:04.924Z,36.52
2017-04-10T02:28:14.848Z,36.52
2017-04-10T02:29:24.780Z,36.52
2017-04-10T02:30:34.390Z,36.52
2017-04-10T02:31:44.633Z,36.61
2017-04-10T02:32:54.562Z,36.91
2017-04-10T02:34:04.834Z,36.43
2017-04-10T02:35:14.765Z,36.52
2017-04-10T02:36:24.688Z,37.01
2017-04-10T02:37:34.929Z,36.23
2017-04-10T02:38:44.544Z,36.52
2017-04-10T02:39:54.459Z,37.1
2017-04-10T02:41:04.385Z,37.19
2017-04-10T02:42:13.992Z,37.1
2017-04-10T02:43:23.919Z,36.71
2017-04-10T02:44:33.842Z,36.33
2017-04-10T02:45:43.459Z,36.61
2017-04-10T02:46:53.385Z,36.52
2017-04-10T02:48:03.658Z,36.52
2017-04-10T02:49:13.583Z,36.52
2017-04-10T02:50:23.503Z,36.52
2017-04-10T02:51:33.741Z,36.23
2017-04-10T02:52:43.979Z,36.33
2017-04-10T02:53:54.209Z,36.43
2017-04-10T02:55:04.450Z,36.33
2017-04-10T02:56:14.374Z,36.43
2017-04-10T02:57:24.297Z,36.52
2017-04-10T02:58:34.531Z,36.13
2017-04-10T02:59:44.775Z,36.52
2017-04-10T03:00:55.011Z,36.61
2017-04-10T03:02:04.627Z,36.43
2017-04-10T03:03:14.870Z,36.43
2017-04-10T03:04:24.482Z,36.43
2017-04-10T03:05:34.730Z,36.52
2017-04-10T03:06:44.343Z,37.01
2017-04-10T03:07:54.268Z,36.23
2017-04-10T03:09:04.512Z,37.01
2017-04-10T03:10:14.436Z,37.1
2017-04-10T03:11:24.355Z,36.52
2017-04-10T03:12:33.966Z,36.61
2017-04-10T03:13:44.204Z,36.71
2017-04-10T03:14:54.125Z,37.01
2017-04-10T03:16:04.051Z,36.61
2017-04-10T03:17:13.977Z,36.52
2017-04-10T03:18:23.583Z,36.33
2017-04-10T03:19:33.822Z,37.1
2017-04-10T03:20:44.057Z,36.52
2017-04-10T03:21:53.977Z,36.23
2017-04-10T03:23:03.906Z,36.33
2017-04-10T03:24:13.833Z,36.33
2017-04-10T03:25:24.070Z,36.43
2017-04-10T03:26:34.300Z,36.52
2017-04-10T03:27:44.220Z,36.61
2017-04-10T03:28:54.454Z,36.71
2017-04-10T03:30:04.380Z,36.61
2017-04-10T03:31:14.316Z,36.81
2017-04-10T03:32:24.547Z,37.01
2017-04-10T03:33:34.782Z,36.91
2017-04-10T03:34:45.015Z,36.81
2017-04-10T03:35:55.254Z,37.01
2017-04-10T03:37:05.488Z,36.91
2017-04-10T03:38:15.106Z,36.71
2017-04-10T03:39:24.408Z,36.52
2017-04-10T03:40:34.656Z,36.04
2017-04-10T03:41:43.951Z,36.33
2017-04-10T03:42:54.185Z,36.61
2017-04-10T03:44:04.426Z,36.43
2017-04-10T03:45:14.662Z,36.61
2017-04-10T03:46:24.898Z,36.52
2017-04-10T03:47:35.132Z,36.52
2017-04-10T03:48:45.366Z,36.52
2017-04-10T03:49:55.596Z,36.52
2017-04-10T03:51:05.520Z,36.61
2017-04-10T03:52:15.756Z,37.1
2017-04-10T03:53:26.002Z,36.52
2017-04-10T03:54:35.922Z,37.1
2017-04-10T03:55:45.534Z,36.43
2017-04-10T03:56:55.783Z,36.33
2017-04-10T03:58:05.702Z,36.52
2017-04-10T03:59:15.657Z,36.52
2017-04-10T04:00:25.888Z,36.79
2017-04-10T04:01:35.503Z,36.71
2017-04-10T04:02:45.429Z,36.52
2017-04-10T04:03:55.666Z,36.81
2017-04-10T04:05:05.598Z,36.52
2017-04-10T04:06:15.521Z,36.51
2017-04-10T04:07:25.753Z,37.18
2017-04-10T04:08:35.362Z,36.51
2017-04-10T04:09:44.973Z,37.19
2017-04-10T04:10:55.208Z,36.41
2017-04-10T04:12:04.817Z,36.99
2017-04-10T04:13:14.424Z,37.08
2017-04-10T04:14:24.662Z,37.08
2017-04-10T04:15:34.586Z,36.31
2017-04-10T04:16:44.511Z,37.08
2017-04-10T04:17:54.739Z,37.08
2017-04-10T04:19:04.967Z,37.08
2017-04-10T04:20:15.201Z,36.6
2017-04-10T04:21:25.119Z,36.31
2017-04-10T04:22:35.361Z,36.6
2017-04-10T04:23:45.324Z,36.33
2017-04-10T04:24:55.553Z,36.6
2017-04-10T04:26:05.163Z,36.69
2017-04-10T04:27:15.085Z,36.6
2017-04-10T04:28:24.697Z,36.31
2017-04-10T04:29:34.623Z,36.69
2017-04-10T04:30:44.856Z,36.79
2017-04-10T04:31:54.773Z,36.51
2017-04-10T04:33:04.693Z,36.6
2017-04-10T04:34:14.923Z,36.41
2017-04-10T04:35:24.842Z,36.79
2017-04-10T04:36:35.077Z,36.6
2017-04-10T04:37:45.312Z,36.51
2017-04-10T04:38:55.553Z,36.51
2017-04-10T04:40:05.785Z,36.69
2017-04-10T04:41:15.708Z,36.51
2017-04-10T04:42:25.659Z,36.6
2017-04-10T04:43:35.895Z,36.51
2017-04-10T04:44:46.129Z,36.51
2017-04-10T04:45:56.053Z,36.69
2017-04-10T04:47:06.280Z,36.6
2017-04-10T04:48:15.878Z,36.51
2017-04-10T04:49:25.799Z,36.51
2017-04-10T04:50:36.037Z,36.51
2017-04-10T04:51:45.965Z,36.51
2017-04-10T04:52:56.206Z,36.51
2017-04-10T04:54:05.823Z,36.51
2017-04-10T04:55:15.747Z,36.41
2017-04-10T04:56:25.982Z,36.6
2017-04-10T04:57:36.212Z,36.31
2017-04-10T04:58:46.454Z,36.41
2017-04-10T04:59:56.419Z,36.41
2017-04-10T05:01:06.657Z,36.51
2017-04-10T05:02:16.896Z,36.51
2017-04-10T05:03:26.822Z,36.69
2017-04-10T05:04:37.057Z,36.31
2017-04-10T05:05:47.293Z,36.51
2017-04-10T05:06:57.530Z,36.21
2017-04-10T05:08:07.763Z,36.6
2017-04-10T05:09:17.996Z,36.51
2017-04-10T05:10:27.915Z,36.51
2017-04-10T05:11:38.168Z,36.21
2017-04-10T05:12:48.429Z,36.31
2017-04-10T05:13:58.650Z,37.08
2017-04-10T05:15:08.883Z,36.6
2017-04-10T05:16:18.809Z,36.69
2017-04-10T05:17:29.042Z,36.6
2017-04-10T05:18:38.961Z,36.6
2017-04-10T05:19:48.879Z,36.41
2017-04-10T05:20:59.116Z,36.69
2017-04-10T05:22:08.717Z,36.31
2017-04-10T05:23:18.636Z,36.69
2017-04-10T05:24:28.557Z,37.18
2017-04-10T05:25:38.171Z,36.69
2017-04-10T05:26:48.405Z,36.6
2017-04-10T05:27:58.016Z,36.6
2017-04-10T05:29:08.269Z,36.89
2017-04-10T05:30:18.499Z,36.31
2017-04-10T05:31:28.731Z,36.51
2017-04-10T05:32:38.966Z,36.69
2017-04-10T05:33:48.891Z,36.41
2017-04-10T05:34:59.128Z,37.18
2017-04-10T05:36:09.360Z,37.08
2017-04-10T05:37:19.589Z,36.51
2017-04-10T05:38:29.817Z,37.08
2017-04-10T05:39:40.052Z,36.89
2017-04-10T05:40:49.658Z,36.89
2017-04-10T05:41:58.951Z,36.51
2017-04-10T05:43:09.183Z,36.79
2017-04-10T05:44:18.790Z,36.79
2017-04-10T05:45:28.714Z,36.6
2017-04-10T05:46:38.631Z,36.31
2017-04-10T05:47:48.899Z,36.6
2017-04-10T05:48:59.142Z,36.51
2017-04-10T05:50:09.378Z,36.61
2017-04-10T05:51:19.612Z,36.99
2017-04-10T05:52:29.896Z,37.08
2017-04-10T05:53:39.505Z,36.69
2017-04-10T05:54:49.745Z,36.69
2017-04-10T05:55:59.982Z,36.69
2017-04-10T05:57:10.221Z,36.99
2017-04-10T05:58:20.451Z,36.69
2017-04-10T05:59:30.681Z,36.21
2017-04-10T06:00:40.914Z,36.69
2017-04-10T06:01:51.141Z,37.1
2017-04-10T06:03:01.377Z,36.52
2017-04-10T06:04:11.610Z,36.71
2017-04-10T06:05:21.592Z,36.81
2017-04-10T06:06:31.823Z,37.19
2017-04-10T06:07:41.760Z,37.08
2017-04-10T06:08:51.993Z,37.08
2017-04-10T06:10:01.916Z,37.1
2017-04-10T06:11:12.155Z,37.19
2017-04-10T06:12:22.065Z,37.19
2017-04-10T06:13:31.988Z,36.91
2017-04-10T06:14:41.912Z,37.1
2017-04-10T06:15:52.143Z,37.1
2017-04-10T06:17:02.377Z,37.01
2017-04-10T06:18:12.615Z,37.29
2017-04-10T06:19:22.844Z,37.19
2017-04-10T06:20:33.075Z,37.29
2017-04-10T06:21:43.326Z,37.29
2017-04-10T06:22:53.244Z,37.39
2017-04-10T06:24:02.857Z,37.48
2017-04-10T06:25:13.101Z,37.58
2017-04-10T06:26:23.338Z,37.29
2017-04-10T06:27:33.569Z,37.39
2017-04-10T06:28:43.806Z,37.29
2017-04-10T06:29:53.721Z,37.1
2017-04-10T06:31:03.970Z,37.1
2017-04-10T06:32:14.206Z,37.29
2017-04-10T06:33:24.443Z,37.29
2017-04-10T06:34:34.682Z,37.29
2017-04-10T06:35:44.601Z,37.39
2017-04-10T06:36:54.520Z,37.29
2017-04-10T06:38:04.752Z,37.29
2017-04-10T06:39:14.667Z,37.29
2017-04-10T06:40:24.899Z,37.29
2017-04-10T06:41:34.823Z,37.48
2017-04-10T06:42:44.742Z,37.39
2017-04-10T06:43:54.663Z,37.48
2017-04-10T06:45:04.586Z,37.29
2017-04-10T06:46:14.832Z,37.39
2017-04-10T06:47:25.071Z,37.39
2017-04-10T06:48:34.992Z,37.48
2017-04-10T06:49:45.228Z,37.29
2017-04-10T06:50:55.465Z,37.29
2017-04-10T06:52:04.761Z,37.29
2017-04-10T06:53:14.704Z,37.48
2017-04-10T06:54:24.623Z,37.48
2017-04-10T06:55:34.853Z,37.19
2017-04-10T06:56:44.777Z,37.19
2017-04-10T06:57:55.011Z,37.58
2017-04-10T06:59:05.240Z,37.1
2017-04-10T07:00:15.164Z,37.58
2017-04-10T07:01:25.395Z,37.29
2017-04-10T07:02:35.633Z,37.39
2017-04-10T07:03:45.254Z,37.29
2017-04-10T07:04:55.177Z,37.39
2017-04-10T07:06:05.413Z,37.29
2017-04-10T07:07:15.660Z,37.19
2017-04-10T07:08:25.885Z,37.48
2017-04-10T07:09:36.122Z,37.39
2017-04-10T07:10:46.361Z,37.39
2017-04-10T07:11:56.600Z,37.48
2017-04-10T07:13:06.212Z,37.29
2017-04-10T07:14:16.141Z,37.19
2017-04-10T07:15:26.056Z,37.39
2017-04-10T07:16:35.666Z,37.29
2017-04-10T07:17:45.903Z,37.29
2017-04-10T07:18:55.838Z,37.58
2017-04-10T07:20:05.781Z,37.39
2017-04-10T07:21:16.023Z,37.48
2017-04-10T07:22:26.256Z,37.19
2017-04-10T07:23:35.869Z,37.39
2017-04-10T07:24:45.787Z,37.29
2017-04-10T07:25:56.021Z,37.87
2017-04-10T07:27:05.948Z,37.39
2017-04-10T07:28:16.212Z,37.29
2017-04-10T07:29:26.455Z,37.58
2017-04-10T07:30:36.691Z,37.77
2017-04-10T07:31:46.931Z,37.68
2017-04-10T07:32:57.162Z,37.77
2017-04-10T07:34:07.395Z,37.87
2017-04-10T07:35:17.630Z,37.48
2017-04-10T07:36:27.556Z,37.68
2017-04-10T07:37:37.795Z,37.48
2017-04-10T07:38:48.030Z,37.39
2017-04-10T07:39:58.257Z,37.48
2017-04-10T07:41:08.498Z,37.29
2017-04-10T07:42:18.735Z,37.29
2017-04-10T07:43:28.658Z,37.68
2017-04-10T07:44:38.887Z,37.58
2017-04-10T07:45:48.819Z,37.19
2017-04-10T07:46:59.057Z,37.39
2017-04-10T07:48:09.323Z,37.68
2017-04-10T07:49:18.931Z,37.77
2017-04-10T07:50:29.177Z,37.77
2017-04-10T07:51:39.412Z,37.77
2017-04-10T07:52:49.342Z,37.58
2017-04-10T07:53:59.271Z,37.48
2017-04-10T07:55:09.191Z,37.68
2017-04-10T07:56:19.119Z,37.29
2017-04-10T07:57:29.041Z,37.39
2017-04-10T07:58:39.274Z,37.29
2017-04-10T07:59:49.195Z,37.58
2017-04-10T08:00:59.427Z,37.58
2017-04-10T08:02:09.356Z,37.68
2017-04-10T08:03:18.968Z,37.39
2017-04-10T08:04:29.201Z,37.77
2017-04-10T08:05:39.125Z,37.77
2017-04-10T08:06:49.360Z,37.68
2017-04-10T08:07:59.275Z,37.77
2017-04-10T08:09:09.513Z,37.77
2017-04-10T08:10:19.761Z,37.58
2017-04-10T08:11:29.429Z,37.77
2017-04-10T08:12:39.664Z,37.77
2017-04-10T08:13:49.592Z,37.77
2017-04-10T08:14:59.514Z,37.77
2017-04-10T08:16:09.440Z,37.58
2017-04-10T08:17:19.361Z,37.68
2017-04-10T08:18:28.973Z,37.58
2017-04-10T08:19:38.896Z,37.68
2017-04-10T08:20:49.134Z,37.68
2017-04-10T08:21:59.053Z,37.48
2017-04-10T08:23:08.996Z,37.48
2017-04-10T08:24:18.924Z,37.39
2017-04-10T08:25:29.162Z,37.58
2017-04-10T08:26:39.399Z,37.87
2017-04-10T08:27:49.630Z,37.87
2017-04-10T08:28:59.875Z,37.87
2017-04-10T08:30:10.118Z,37.68
2017-04-10T08:31:20.349Z,37.98
2017-04-10T08:32:30.583Z,37.68
2017-04-10T08:33:40.190Z,37.96
2017-04-10T08:34:50.116Z,37.89
2017-04-10T08:36:00.040Z,38.16
2017-04-10T08:37:09.663Z,37.98
2017-04-10T08:38:19.886Z,38.06
2017-04-10T08:39:30.138Z,38.18
2017-04-10T08:40:40.066Z,38.08
2017-04-10T08:41:50.302Z,38.08
2017-04-10T08:43:00.230Z,37.96
2017-04-10T08:44:10.472Z,38.08
2017-04-10T08:45:20.709Z,38.16
2017-04-10T08:46:30.951Z,38.28
2017-04-10T08:47:40.874Z,38.18
2017-04-10T08:48:50.807Z,38.08
2017-04-10T08:50:00.727Z,37.98
2017-04-10T08:51:10.022Z,38.08
2017-04-10T08:52:19.627Z,38.08
2017-04-10T08:53:29.866Z,38.06
2017-04-10T08:54:39.480Z,38.08
2017-04-10T08:55:49.722Z,37.98
2017-04-10T08:56:59.959Z,37.98
2017-04-10T08:58:09.262Z,38.18
2017-04-10T08:59:19.490Z,37.98
2017-04-10T09:00:29.098Z,38.08
2017-04-10T09:01:39.024Z,38.18
2017-04-10T09:02:48.940Z,38.08
2017-04-10T09:03:58.863Z,38.08
2017-04-10T09:05:09.118Z,38.18
2017-04-10T09:06:19.045Z,38.08
2017-04-10T09:07:28.960Z,38.18
2017-04-10T09:08:39.195Z,37.89
2017-04-10T09:09:49.122Z,37.98
2017-04-10T09:10:58.722Z,37.89
2017-04-10T09:12:08.643Z,37.87
2017-04-10T09:13:18.567Z,38.08
2017-04-10T09:14:28.855Z,38.18
2017-04-10T09:15:39.095Z,37.98
2017-04-10T09:16:48.704Z,38.18
2017-04-10T09:17:58.929Z,38.37
2017-04-10T09:19:09.160Z,37.89
2017-04-10T09:20:19.081Z,38.08
2017-04-10T09:21:29.314Z,38.08
2017-04-10T09:22:39.234Z,38.28
2017-04-10T09:23:48.841Z,38.28
2017-04-10T09:24:59.071Z,38.28
2017-04-10T09:26:09.001Z,38.08
2017-04-10T09:27:18.930Z,38.28
2017-04-10T09:28:29.170Z,38.37
2017-04-10T09:29:39.089Z,38.37
2017-04-10T09:30:49.006Z,38.28
2017-04-10T09:31:58.932Z,38.37
2017-04-10T09:33:08.858Z,38.28
2017-04-10T09:34:19.094Z,38.28
2017-04-10T09:35:29.020Z,38.28
2017-04-10T09:36:38.322Z,38.28
2017-04-10T09:37:48.559Z,38.28
2017-04-10T09:38:58.172Z,38.37
2017-04-10T09:40:08.402Z,38.28
2017-04-10T09:41:18.322Z,38.28
2017-04-10T09:42:28.242Z,38.18
2017-04-10T09:43:38.161Z,38.28
2017-04-10T09:44:48.085Z,38.28
2017-04-10T09:45:57.690Z,38.37
2017-04-10T09:47:07.928Z,38.28
2017-04-10T09:48:17.534Z,38.28
2017-04-10T09:49:27.458Z,38.18
2017-04-10T09:50:37.380Z,38.28
2017-04-10T09:51:46.675Z,38.28
2017-04-10T09:52:56.594Z,38.28
2017-04-10T09:54:06.825Z,38.37
2017-04-10T09:55:17.056Z,38.37
2017-04-10T09:56:26.972Z,38.28
2017-04-10T09:57:37.206Z,38.28
2017-04-10T09:58:47.469Z,38.08
2017-04-10T09:59:57.702Z,38.28
2017-04-10T10:01:07.945Z,38.37
2017-04-10T10:02:18.212Z,38.28
2017-04-10T10:03:27.508Z,38.28
2017-04-10T10:04:37.753Z,38.37
2017-04-10T10:05:47.366Z,38.28
2017-04-10T10:06:57.605Z,38.26
2017-04-10T10:08:07.854Z,38.37
2017-04-10T10:09:17.465Z,38.37
2017-04-10T10:10:27.703Z,38.18
2017-04-10T10:11:37.630Z,38.37
2017-04-10T10:12:47.861Z,38.28
2017-04-10T10:13:57.472Z,38.37
2017-04-10T10:15:07.079Z,38.28
2017-04-10T10:16:17.031Z,38.28
2017-04-10T10:17:26.951Z,38.18
2017-04-10T10:18:36.877Z,38.28
2017-04-10T10:19:46.489Z,38.28
2017-04-10T10:20:56.717Z,38.28
2017-04-10T10:22:06.644Z,38.08
2017-04-10T10:23:16.250Z,38.37
2017-04-10T10:24:26.483Z,38.37
2017-04-10T10:25:36.402Z,38.28
2017-04-10T10:26:46.325Z,38.28
2017-04-10T10:27:56.247Z,38.26
2017-04-10T10:29:06.180Z,38.35
2017-04-10T10:30:16.455Z,37.98
2017-04-10T10:31:26.378Z,38.08
2017-04-10T10:32:36.311Z,38.28
2017-04-10T10:33:45.919Z,38.26
2017-04-10T10:34:56.150Z,38.37
2017-04-10T10:36:05.754Z,38.37
2017-04-10T10:37:15.049Z,38.18
2017-04-10T10:38:25.284Z,38.26
2017-04-10T10:39:35.207Z,38.28
2017-04-10T10:40:45.172Z,38.16
2017-04-10T10:41:55.097Z,38.16
2017-04-10T10:43:05.331Z,38.37
2017-04-10T10:44:14.630Z,38.28
2017-04-10T10:45:24.241Z,38.18
2017-04-10T10:46:34.510Z,38.26
2017-04-10T10:47:43.813Z,38.45
2017-04-10T10:48:53.727Z,38.37
2017-04-10T10:50:03.022Z,38.37
2017-04-10T10:51:12.319Z,38.37
2017-04-10T10:52:21.923Z,38.28
2017-04-10T10:53:31.850Z,38.35
2017-04-10T10:54:41.461Z,38.35
2017-04-10T10:55:51.071Z,38.37
2017-04-10T10:57:01.028Z,38.26
2017-04-10T10:58:10.324Z,38.37
2017-04-10T10:59:20.560Z,38.35
2017-04-10T11:00:30.481Z,38.46
2017-04-10T11:01:40.410Z,38.18
2017-04-10T11:02:50.642Z,38.46
2017-04-10T11:04:00.884Z,38.28
2017-04-10T11:05:10.514Z,38.35
2017-04-10T11:06:20.431Z,38.35
2017-04-10T11:07:30.051Z,38.46
2017-04-10T11:08:39.980Z,38.46
2017-04-10T11:09:49.902Z,38.46
2017-04-10T11:10:59.826Z,38.54
2017-04-10T11:12:09.444Z,38.46
2017-04-10T11:13:19.361Z,38.37
2017-04-10T11:14:28.969Z,38.45
2017-04-10T11:15:38.890Z,38.46
2017-04-10T11:16:48.803Z,38.37
2017-04-10T11:17:58.113Z,38.37
2017-04-10T11:19:07.408Z,38.46
2017-04-10T11:20:17.324Z,38.56
2017-04-10T11:21:26.926Z,38.54
2017-04-10T11:22:36.228Z,38.46
2017-04-10T11:23:46.457Z,38.46
2017-04-10T11:24:56.371Z,38.54
2017-04-10T11:26:06.608Z,38.54
2017-04-10T11:27:15.895Z,38.56
2017-04-10T11:28:26.129Z,38.54
2017-04-10T11:29:36.049Z,38.28
2017-04-10T11:30:45.672Z,38.45
2017-04-10T11:31:55.905Z,38.64
2017-04-10T11:33:05.827Z,38.56
2017-04-10T11:34:15.756Z,38.56
2017-04-10T11:35:25.678Z,38.16
2017-04-10T11:36:35.963Z,37.96
2017-04-10T11:37:45.577Z,37.29
2017-04-10T11:38:55.805Z,37.68
2017-04-10T11:40:05.409Z,37.77
2017-04-10T11:41:15.329Z,37.48
2017-04-10T11:42:25.565Z,37.39
2017-04-10T11:43:35.487Z,37.01
2017-04-10T11:44:45.402Z,37.29
2017-04-10T11:45:54.735Z,36.71
2017-04-10T11:47:05.339Z,37.19
2017-04-10T11:48:16.694Z,37.19
2017-04-10T11:49:27.854Z,37.1
2017-04-10T11:50:37.974Z,36.69
2017-04-10T11:51:47.973Z,36.69
2017-04-10T11:52:58.694Z,36.69
2017-04-10T11:54:08.728Z,36.89
2017-04-10T11:55:19.016Z,36.69
2017-04-10T11:56:29.870Z,36.91
2017-04-10T11:57:39.791Z,37.29
2017-04-10T11:58:50.025Z,37.68
2017-04-10T11:59:59.947Z,38.06
2017-04-10T12:01:09.872Z,38.16
2017-04-10T12:02:19.790Z,38.35
2017-04-10T12:03:29.781Z,38.45
2017-04-10T12:04:41.028Z,38.35
2017-04-10T12:05:51.778Z,38.74
2017-04-10T12:07:01.931Z,38.83
2017-04-10T12:08:11.873Z,38.83
2017-04-10T12:09:21.824Z,38.64
2017-04-10T12:10:31.739Z,38.83
2017-04-10T12:11:41.350Z,38.74
2017-04-10T12:12:51.632Z,38.83
2017-04-10T12:14:01.866Z,38.93
2017-04-10T12:15:12.110Z,38.64
2017-04-10T12:16:22.355Z,38.93
2017-04-10T12:17:32.588Z,38.93
2017-04-10T12:18:42.820Z,39.03
2017-04-10T12:19:53.055Z,39.22
2017-04-10T12:21:02.977Z,39.31
2017-04-10T12:22:13.219Z,38.93
2017-04-10T12:23:23.462Z,39.22
2017-04-10T12:24:33.076Z,39.03
2017-04-10T12:25:42.724Z,39.22
2017-04-10T12:26:52.957Z,39.04
2017-04-10T12:28:03.195Z,38.83
2017-04-10T12:29:12.805Z,39.31
2017-04-10T12:30:23.035Z,38.83
2017-04-10T12:31:32.973Z,38.93
2017-04-10T12:32:43.211Z,39.31
2017-04-10T12:33:53.449Z,39.22
2017-04-10T12:35:03.362Z,39.22
2017-04-10T12:36:13.287Z,39.03
2017-04-10T12:37:22.585Z,39.03
2017-04-10T12:38:32.816Z,39.03
2017-04-10T12:39:42.424Z,39.22
2017-04-10T12:40:52.035Z,39.41
2017-04-10T12:42:02.264Z,39.51
2017-04-10T12:43:12.507Z,39.03
2017-04-10T12:44:22.741Z,39.7
2017-04-10T12:45:32.662Z,39.41
2017-04-10T12:46:42.894Z,39.7
2017-04-10T12:47:53.146Z,39.7
2017-04-10T12:49:03.400Z,39.31
2017-04-10T12:50:13.315Z,39.61
2017-04-10T12:51:23.233Z,39.31
2017-04-10T12:52:33.465Z,39.61
2017-04-10T12:53:43.693Z,39.43
2017-04-10T12:54:53.925Z,39.61
2017-04-10T12:56:04.154Z,39.31
2017-04-10T12:57:13.769Z,39.43
2017-04-10T12:58:23.378Z,39.34
2017-04-10T12:59:33.613Z,39.41
2017-04-10T13:00:43.532Z,39.53
2017-04-10T13:01:53.451Z,39.62
2017-04-10T13:03:03.374Z,39.34
2017-04-10T13:04:13.664Z,39.24
2017-04-10T13:05:23.914Z,39.62
2017-04-10T13:06:33.836Z,39.24
2017-04-10T13:07:43.754Z,39.43
2017-04-10T13:08:53.679Z,39.53
2017-04-10T13:10:03.601Z,39.61
2017-04-10T13:11:13.219Z,39.79
2017-04-10T13:12:23.459Z,40.39
2017-04-10T13:13:33.729Z,40.09
2017-04-10T13:14:43.970Z,40.09
2017-04-10T13:15:54.209Z,40.09
2017-04-10T13:17:04.453Z,40.01
2017-04-10T13:18:14.058Z,40.39
2017-04-10T13:19:24.292Z,39.62
2017-04-10T13:20:34.213Z,37.96
2017-04-10T13:21:44.134Z,37.68
2017-04-10T13:22:54.052Z,37.95
2017-04-10T13:24:03.979Z,38.06
2017-04-10T13:25:14.205Z,37.85
2017-04-10T13:26:24.441Z,36.99
2017-04-10T13:27:34.674Z,37.18
2017-04-10T13:28:44.916Z,37.08
2017-04-10T13:29:54.528Z,36.21
2017-04-10T13:31:04.771Z,36.11
2017-04-10T13:32:15.005Z,36.31
2017-04-10T13:33:24.615Z,36.41
2017-04-10T13:34:34.227Z,36.31
2017-04-10T13:35:44.142Z,35.64
2017-04-10T13:36:54.062Z,35.93
2017-04-10T13:38:03.976Z,35.91
2017-04-10T13:39:13.904Z,36.51
2017-04-10T13:40:23.820Z,36.21
2017-04-10T13:41:33.740Z,36.11
2017-04-10T13:42:43.660Z,35.33
2017-04-10T13:43:53.584Z,35.25
2017-04-10T13:45:03.518Z,35.52
2017-04-10T13:46:13.768Z,35.24
2017-04-10T13:47:23.690Z,34.94
2017-04-10T13:48:33.614Z,35.71
2017-04-10T13:49:43.529Z,34.84
2017-04-10T13:50:53.451Z,34.56
2017-04-10T13:52:03.372Z,34.56
2017-04-10T13:53:12.987Z,34.27
2017-04-10T13:54:22.905Z,34.84
2017-04-10T13:55:33.136Z,35.62
2017-04-10T13:56:42.762Z,34.84
2017-04-10T13:57:53.012Z,34.66
2017-04-10T13:59:03.244Z,34.66
2017-04-10T14:00:12.538Z,34.56
2017-04-10T14:01:22.470Z,34.46
2017-04-10T14:02:32.397Z,34.27
2017-04-10T14:03:42.636Z,34.27
2017-04-10T14:04:52.555Z,34.17
2017-04-10T14:06:02.474Z,34.37
2017-04-10T14:07:12.404Z,33.98
2017-04-10T14:08:22.008Z,34.08
2017-04-10T14:09:31.623Z,34.37
2017-04-10T14:10:41.861Z,34.56
2017-04-10T14:11:51.781Z,34.17
2017-04-10T14:13:02.034Z,34.08
2017-04-10T14:14:11.964Z,34.08
2017-04-10T14:15:21.884Z,34.27
2017-04-10T14:16:32.118Z,34.46
2017-04-10T14:17:42.353Z,34.75
2017-04-10T14:18:52.599Z,34.67
2017-04-10T14:20:02.824Z,35.73
2017-04-10T14:21:12.133Z,35.16
2017-04-10T14:22:22.053Z,35.54
2017-04-10T14:23:32.290Z,35.25
2017-04-10T14:24:42.557Z,35.25
2017-04-10T14:25:52.803Z,35.73
2017-04-10T14:27:03.037Z,35.73
2017-04-10T14:28:12.335Z,35.75
2017-04-10T14:29:22.581Z,35.85
2017-04-10T14:30:32.824Z,36.04
2017-04-10T14:31:43.068Z,36.04
2017-04-10T14:32:53.295Z,36.13
2017-04-10T14:34:03.221Z,36.13
2017-04-10T14:35:13.472Z,36.04
2017-04-10T14:36:23.080Z,36.23
2017-04-10T14:37:33.312Z,36.61
2017-04-10T14:38:43.234Z,36.33
2017-04-10T14:39:53.161Z,36.52
2017-04-10T14:41:03.128Z,36.33
2017-04-10T14:42:13.356Z,37.01
2017-04-10T14:43:23.279Z,37.1
2017-04-10T14:44:33.564Z,36.52
2017-04-10T14:45:43.491Z,36.52
2017-04-10T14:46:53.418Z,36.81
2017-04-10T14:48:03.648Z,36.71
2017-04-10T14:49:13.572Z,36.43
2017-04-10T14:50:23.501Z,36.71
2017-04-10T14:51:33.776Z,36.91
2017-04-10T14:52:43.735Z,37.29
2017-04-10T14:53:53.652Z,36.61
2017-04-10T14:55:03.884Z,36.52
2017-04-10T14:56:13.504Z,35.94
2017-04-10T14:57:23.117Z,35.65
2017-04-10T14:58:33.040Z,34.69
2017-04-10T14:59:42.966Z,34.88
2017-04-10T15:00:53.203Z,34.4
2017-04-10T15:02:03.451Z,35.46
2017-04-10T15:03:13.069Z,34.78